sensor_id;sensor_type;location;lat;lon;timestamp;pressure;altitude;pressure_sealevel;temperature
7389;BMP180;3735;50.136;11.062;2023-03-12T00:00:50;97867.00;;;-3.80
7389;BMP180;3735;50.136;11.062;2023-03-12T00:03:16;97875.00;;;-3.80
7389;BMP180;3735;50.136;11.062;2023-03-12T00:05:43;97887.00;;;-3.80
7389;BMP180;3735;50.136;11.062;2023-03-12T00:08:10;97880.00;;;-3.80
7389;BMP180;3735;50.136;11.062;2023-03-12T00:10:38;97884.00;;;-3.70
7389;BMP180;3735;50.136;11.062;2023-03-12T00:13:05;97867.00;;;-3.70
7389;BMP180;3735;50.136;11.062;2023-03-12T00:15:31;97874.00;;;-3.80
7389;BMP180;3735;50.136;11.062;2023-03-12T00:17:56;97887.00;;;-3.80
7389;BMP180;3735;50.136;11.062;2023-03-12T00:20:22;97901.00;;;-3.90
7389;BMP180;3735;50.136;11.062;2023-03-12T00:22:49;97903.00;;;-3.90
7389;BMP180;3735;50.136;11.062;2023-03-12T00:25:16;97900.00;;;-3.90
7389;BMP180;3735;50.136;11.062;2023-03-12T00:27:42;97883.00;;;-3.90
7389;BMP180;3735;50.136;11.062;2023-03-12T00:30:10;97873.00;;;-3.90
7389;BMP180;3735;50.136;11.062;2023-03-12T00:32:36;97882.00;;;-4.00
7389;BMP180;3735;50.136;11.062;2023-03-12T00:35:04;97887.00;;;-4.00
7389;BMP180;3735;50.136;11.062;2023-03-12T00:37:30;97885.00;;;-3.90
7389;BMP180;3735;50.136;11.062;2023-03-12T00:39:58;97884.00;;;-3.90
7389;BMP180;3735;50.136;11.062;2023-03-12T00:42:26;97884.00;;;-3.90
7389;BMP180;3735;50.136;11.062;2023-03-12T00:44:52;97890.00;;;-3.90
7389;BMP180;3735;50.136;11.062;2023-03-12T00:47:18;97889.00;;;-3.90
7389;BMP180;3735;50.136;11.062;2023-03-12T00:49:44;97893.00;;;-3.90
7389;BMP180;3735;50.136;11.062;2023-03-12T00:52:10;97885.00;;;-3.90
7389;BMP180;3735;50.136;11.062;2023-03-12T00:54:36;97878.00;;;-3.80
7389;BMP180;3735;50.136;11.062;2023-03-12T00:57:01;97889.00;;;-3.80
7389;BMP180;3735;50.136;11.062;2023-03-12T00:59:27;97887.00;;;-3.80
7389;BMP180;3735;50.136;11.062;2023-03-12T01:01:53;97890.00;;;-3.80
7389;BMP180;3735;50.136;11.062;2023-03-12T01:04:19;97887.00;;;-3.80
7389;BMP180;3735;50.136;11.062;2023-03-12T01:06:45;97888.00;;;-3.80
7389;BMP180;3735;50.136;11.062;2023-03-12T01:09:10;97869.00;;;-3.80
7389;BMP180;3735;50.136;11.062;2023-03-12T01:11:37;97870.00;;;-3.90
7389;BMP180;3735;50.136;11.062;2023-03-12T01:14:07;97875.00;;;-3.90
7389;BMP180;3735;50.136;11.062;2023-03-12T01:16:33;97880.00;;;-4.10
7389;BMP180;3735;50.136;11.062;2023-03-12T01:19:00;97890.00;;;-4.20
7389;BMP180;3735;50.136;11.062;2023-03-12T01:21:28;97892.00;;;-4.30
7389;BMP180;3735;50.136;11.062;2023-03-12T01:23:55;97870.00;;;-4.30
7389;BMP180;3735;50.136;11.062;2023-03-12T01:26:22;97886.00;;;-4.30
7389;BMP180;3735;50.136;11.062;2023-03-12T01:28:48;97889.00;;;-4.30
7389;BMP180;3735;50.136;11.062;2023-03-12T01:31:17;97878.00;;;-4.30
7389;BMP180;3735;50.136;11.062;2023-03-12T01:33:44;97881.00;;;-4.20
7389;BMP180;3735;50.136;11.062;2023-03-12T01:36:25;97883.00;;;-4.20
7389;BMP180;3735;50.136;11.062;2023-03-12T01:38:55;97894.00;;;-4.20
7389;BMP180;3735;50.136;11.062;2023-03-12T01:41:23;97891.00;;;-4.30
7389;BMP180;3735;50.136;11.062;2023-03-12T01:43:49;97896.00;;;-4.30
7389;BMP180;3735;50.136;11.062;2023-03-12T01:46:37;97897.00;;;-4.40
7389;BMP180;3735;50.136;11.062;2023-03-12T01:51:53;97887.00;;;-4.40
7389;BMP180;3735;50.136;11.062;2023-03-12T01:54:21;97887.00;;;-4.40
7389;BMP180;3735;50.136;11.062;2023-03-12T01:56:49;97885.00;;;-4.40
7389;BMP180;3735;50.136;11.062;2023-03-12T01:59:32;97876.00;;;-4.40
7389;BMP180;3735;50.136;11.062;2023-03-12T02:01:59;97874.00;;;-4.30
7389;BMP180;3735;50.136;11.062;2023-03-12T02:04:27;97875.00;;;-4.40
7389;BMP180;3735;50.136;11.062;2023-03-12T02:07:06;97878.00;;;-4.40
7389;BMP180;3735;50.136;11.062;2023-03-12T02:09:37;97876.00;;;-4.40
7389;BMP180;3735;50.136;11.062;2023-03-12T02:12:05;97862.00;;;-4.30
7389;BMP180;3735;50.136;11.062;2023-03-12T02:14:32;97875.00;;;-4.30
7389;BMP180;3735;50.136;11.062;2023-03-12T02:16:58;97877.00;;;-4.30
7389;BMP180;3735;50.136;11.062;2023-03-12T02:20:04;97880.00;;;-4.30
7389;BMP180;3735;50.136;11.062;2023-03-12T02:22:40;97871.00;;;-4.40
7389;BMP180;3735;50.136;11.062;2023-03-12T02:25:40;97878.00;;;-4.30
7389;BMP180;3735;50.136;11.062;2023-03-12T02:28:11;97874.00;;;-4.30
7389;BMP180;3735;50.136;11.062;2023-03-12T02:30:41;97875.00;;;-4.30
7389;BMP180;3735;50.136;11.062;2023-03-12T02:33:09;97874.00;;;-4.20
7389;BMP180;3735;50.136;11.062;2023-03-12T02:35:36;97875.00;;;-4.20
7389;BMP180;3735;50.136;11.062;2023-03-12T02:38:33;97872.00;;;-4.00
7389;BMP180;3735;50.136;11.062;2023-03-12T02:43:33;97877.00;;;-3.80
7389;BMP180;3735;50.136;11.062;2023-03-12T02:45:59;97878.00;;;-3.70
7389;BMP180;3735;50.136;11.062;2023-03-12T02:48:25;97871.00;;;-3.60
7389;BMP180;3735;50.136;11.062;2023-03-12T02:50:51;97877.00;;;-3.50
7389;BMP180;3735;50.136;11.062;2023-03-12T02:53:16;97866.00;;;-3.40
7389;BMP180;3735;50.136;11.062;2023-03-12T02:55:42;97886.00;;;-3.30
7389;BMP180;3735;50.136;11.062;2023-03-12T02:58:08;97877.00;;;-3.20
7389;BMP180;3735;50.136;11.062;2023-03-12T03:00:33;97877.00;;;-3.20
7389;BMP180;3735;50.136;11.062;2023-03-12T03:03:00;97870.00;;;-3.10
7389;BMP180;3735;50.136;11.062;2023-03-12T03:05:26;97880.00;;;-3.00
7389;BMP180;3735;50.136;11.062;2023-03-12T03:07:52;97872.00;;;-2.90
7389;BMP180;3735;50.136;11.062;2023-03-12T03:10:18;97875.00;;;-2.90
7389;BMP180;3735;50.136;11.062;2023-03-12T03:12:43;97878.00;;;-2.80
7389;BMP180;3735;50.136;11.062;2023-03-12T03:15:10;97863.00;;;-2.80
7389;BMP180;3735;50.136;11.062;2023-03-12T03:17:36;97857.00;;;-2.70
7389;BMP180;3735;50.136;11.062;2023-03-12T03:20:04;97860.00;;;-2.70
7389;BMP180;3735;50.136;11.062;2023-03-12T03:22:37;97859.00;;;-2.80
7389;BMP180;3735;50.136;11.062;2023-03-12T03:25:05;97862.00;;;-2.70
7389;BMP180;3735;50.136;11.062;2023-03-12T03:27:32;97869.00;;;-2.70
7389;BMP180;3735;50.136;11.062;2023-03-12T03:29:57;97860.00;;;-2.70
7389;BMP180;3735;50.136;11.062;2023-03-12T03:32:23;97863.00;;;-2.70
7389;BMP180;3735;50.136;11.062;2023-03-12T03:34:49;97862.00;;;-2.70
7389;BMP180;3735;50.136;11.062;2023-03-12T03:37:15;97865.00;;;-2.70
7389;BMP180;3735;50.136;11.062;2023-03-12T03:39:40;97873.00;;;-2.70
7389;BMP180;3735;50.136;11.062;2023-03-12T03:42:06;97866.00;;;-2.60
7389;BMP180;3735;50.136;11.062;2023-03-12T03:44:32;97880.00;;;-2.60
7389;BMP180;3735;50.136;11.062;2023-03-12T03:46:58;97871.00;;;-2.60
7389;BMP180;3735;50.136;11.062;2023-03-12T03:49:24;97867.00;;;-2.60
7389;BMP180;3735;50.136;11.062;2023-03-12T03:51:51;97876.00;;;-2.60
7389;BMP180;3735;50.136;11.062;2023-03-12T03:54:17;97871.00;;;-2.50
7389;BMP180;3735;50.136;11.062;2023-03-12T03:56:43;97875.00;;;-2.50
7389;BMP180;3735;50.136;11.062;2023-03-12T03:59:09;97876.00;;;-2.50
7389;BMP180;3735;50.136;11.062;2023-03-12T04:01:35;97877.00;;;-2.50
7389;BMP180;3735;50.136;11.062;2023-03-12T04:04:03;97878.00;;;-2.50
7389;BMP180;3735;50.136;11.062;2023-03-12T04:06:29;97856.00;;;-2.50
7389;BMP180;3735;50.136;11.062;2023-03-12T04:08:57;97870.00;;;-2.50
7389;BMP180;3735;50.136;11.062;2023-03-12T04:11:23;97881.00;;;-2.40
7389;BMP180;3735;50.136;11.062;2023-03-12T04:13:49;97870.00;;;-2.40
7389;BMP180;3735;50.136;11.062;2023-03-12T04:16:16;97865.00;;;-2.40
7389;BMP180;3735;50.136;11.062;2023-03-12T04:18:43;97872.00;;;-2.40
7389;BMP180;3735;50.136;11.062;2023-03-12T04:21:12;97863.00;;;-2.30
7389;BMP180;3735;50.136;11.062;2023-03-12T04:23:38;97870.00;;;-2.30
7389;BMP180;3735;50.136;11.062;2023-03-12T04:26:05;97871.00;;;-2.20
7389;BMP180;3735;50.136;11.062;2023-03-12T04:28:32;97850.00;;;-2.30
7389;BMP180;3735;50.136;11.062;2023-03-12T04:31:03;97858.00;;;-2.20
7389;BMP180;3735;50.136;11.062;2023-03-12T04:33:33;97862.00;;;-2.20
7389;BMP180;3735;50.136;11.062;2023-03-12T04:35:59;97860.00;;;-2.20
7389;BMP180;3735;50.136;11.062;2023-03-12T04:38:26;97859.00;;;-2.40
7389;BMP180;3735;50.136;11.062;2023-03-12T04:41:07;97855.00;;;-2.40
7389;BMP180;3735;50.136;11.062;2023-03-12T04:43:34;97851.00;;;-2.30
7389;BMP180;3735;50.136;11.062;2023-03-12T04:46:00;97862.00;;;-2.30
7389;BMP180;3735;50.136;11.062;2023-03-12T04:48:26;97843.00;;;-2.20
7389;BMP180;3735;50.136;11.062;2023-03-12T04:50:53;97869.00;;;-2.30
7389;BMP180;3735;50.136;11.062;2023-03-12T04:53:20;97855.00;;;-2.30
7389;BMP180;3735;50.136;11.062;2023-03-12T04:55:46;97862.00;;;-2.30
7389;BMP180;3735;50.136;11.062;2023-03-12T04:58:13;97861.00;;;-2.20
7389;BMP180;3735;50.136;11.062;2023-03-12T05:00:40;97852.00;;;-2.30
7389;BMP180;3735;50.136;11.062;2023-03-12T05:03:06;97863.00;;;-2.30
7389;BMP180;3735;50.136;11.062;2023-03-12T05:05:33;97867.00;;;-2.30
7389;BMP180;3735;50.136;11.062;2023-03-12T05:08:01;97868.00;;;-2.30
7389;BMP180;3735;50.136;11.062;2023-03-12T05:10:27;97867.00;;;-2.30
7389;BMP180;3735;50.136;11.062;2023-03-12T05:12:53;97879.00;;;-2.30
7389;BMP180;3735;50.136;11.062;2023-03-12T05:15:18;97862.00;;;-2.20
7389;BMP180;3735;50.136;11.062;2023-03-12T05:17:44;97867.00;;;-2.20
7389;BMP180;3735;50.136;11.062;2023-03-12T05:20:12;97845.00;;;-2.20
7389;BMP180;3735;50.136;11.062;2023-03-12T05:22:39;97841.00;;;-2.30
7389;BMP180;3735;50.136;11.062;2023-03-12T05:25:05;97868.00;;;-2.30
7389;BMP180;3735;50.136;11.062;2023-03-12T05:27:31;97863.00;;;-2.30
7389;BMP180;3735;50.136;11.062;2023-03-12T05:29:57;97859.00;;;-2.30
7389;BMP180;3735;50.136;11.062;2023-03-12T05:32:23;97860.00;;;-2.30
7389;BMP180;3735;50.136;11.062;2023-03-12T05:34:49;97856.00;;;-2.40
7389;BMP180;3735;50.136;11.062;2023-03-12T05:37:15;97852.00;;;-2.30
7389;BMP180;3735;50.136;11.062;2023-03-12T05:39:40;97860.00;;;-2.30
7389;BMP180;3735;50.136;11.062;2023-03-12T05:42:12;97860.00;;;-2.30
7389;BMP180;3735;50.136;11.062;2023-03-12T05:44:39;97857.00;;;-2.30
7389;BMP180;3735;50.136;11.062;2023-03-12T05:47:05;97865.00;;;-2.20
7389;BMP180;3735;50.136;11.062;2023-03-12T05:49:31;97866.00;;;-2.20
7389;BMP180;3735;50.136;11.062;2023-03-12T05:51:57;97868.00;;;-2.00
7389;BMP180;3735;50.136;11.062;2023-03-12T05:54:23;97855.00;;;-2.00
7389;BMP180;3735;50.136;11.062;2023-03-12T05:56:49;97854.00;;;-1.90
7389;BMP180;3735;50.136;11.062;2023-03-12T05:59:14;97860.00;;;-1.80
7389;BMP180;3735;50.136;11.062;2023-03-12T06:01:41;97861.00;;;-1.80
7389;BMP180;3735;50.136;11.062;2023-03-12T06:04:07;97859.00;;;-1.70
7389;BMP180;3735;50.136;11.062;2023-03-12T06:06:35;97856.00;;;-1.50
7389;BMP180;3735;50.136;11.062;2023-03-12T06:09:03;97858.00;;;-1.40
7389;BMP180;3735;50.136;11.062;2023-03-12T06:11:29;97848.00;;;-1.40
7389;BMP180;3735;50.136;11.062;2023-03-12T06:13:56;97850.00;;;-1.30
7389;BMP180;3735;50.136;11.062;2023-03-12T06:16:25;97853.00;;;-1.20
7389;BMP180;3735;50.136;11.062;2023-03-12T06:19:01;97859.00;;;-1.20
7389;BMP180;3735;50.136;11.062;2023-03-12T06:21:31;97860.00;;;-1.00
7389;BMP180;3735;50.136;11.062;2023-03-12T06:23:58;97854.00;;;-1.00
7389;BMP180;3735;50.136;11.062;2023-03-12T06:26:25;97869.00;;;-0.80
7389;BMP180;3735;50.136;11.062;2023-03-12T06:28:51;97869.00;;;-0.80
7389;BMP180;3735;50.136;11.062;2023-03-12T06:31:21;97858.00;;;-0.70
7389;BMP180;3735;50.136;11.062;2023-03-12T06:33:47;97847.00;;;-0.70
7389;BMP180;3735;50.136;11.062;2023-03-12T06:36:14;97829.00;;;-0.60
7389;BMP180;3735;50.136;11.062;2023-03-12T06:38:40;97824.00;;;-0.60
7389;BMP180;3735;50.136;11.062;2023-03-12T06:41:12;97824.00;;;-0.50
7389;BMP180;3735;50.136;11.062;2023-03-12T06:43:40;97831.00;;;-0.50
7389;BMP180;3735;50.136;11.062;2023-03-12T06:46:14;97819.00;;;-0.40
7389;BMP180;3735;50.136;11.062;2023-03-12T06:48:41;97828.00;;;-0.30
7389;BMP180;3735;50.136;11.062;2023-03-12T06:51:09;97824.00;;;-0.20
7389;BMP180;3735;50.136;11.062;2023-03-12T06:53:35;97825.00;;;-0.10
7389;BMP180;3735;50.136;11.062;2023-03-12T06:56:01;97832.00;;;0.00
7389;BMP180;3735;50.136;11.062;2023-03-12T06:58:27;97820.00;;;0.10
7389;BMP180;3735;50.136;11.062;2023-03-12T07:00:53;97818.00;;;0.10
7389;BMP180;3735;50.136;11.062;2023-03-12T07:03:20;97804.00;;;0.20
7389;BMP180;3735;50.136;11.062;2023-03-12T07:05:48;97812.00;;;0.40
7389;BMP180;3735;50.136;11.062;2023-03-12T07:08:15;97813.00;;;0.40
7389;BMP180;3735;50.136;11.062;2023-03-12T07:10:41;97815.00;;;0.50
7389;BMP180;3735;50.136;11.062;2023-03-12T07:13:07;97827.00;;;0.60
7389;BMP180;3735;50.136;11.062;2023-03-12T07:15:33;97833.00;;;0.70
7389;BMP180;3735;50.136;11.062;2023-03-12T07:18:08;97833.00;;;1.10
7389;BMP180;3735;50.136;11.062;2023-03-12T07:20:42;97829.00;;;1.70
7389;BMP180;3735;50.136;11.062;2023-03-12T07:23:09;97824.00;;;2.30
7389;BMP180;3735;50.136;11.062;2023-03-12T07:25:40;97819.00;;;2.40
7389;BMP180;3735;50.136;11.062;2023-03-12T07:28:07;97839.00;;;2.50
7389;BMP180;3735;50.136;11.062;2023-03-12T07:30:34;97836.00;;;2.30
7389;BMP180;3735;50.136;11.062;2023-03-12T07:33:09;97834.00;;;2.20
7389;BMP180;3735;50.136;11.062;2023-03-12T07:35:36;97813.00;;;2.40
7389;BMP180;3735;50.136;11.062;2023-03-12T07:38:04;97830.00;;;2.80
7389;BMP180;3735;50.136;11.062;2023-03-12T07:40:30;97828.00;;;3.10
7389;BMP180;3735;50.136;11.062;2023-03-12T07:42:57;97826.00;;;3.20
7389;BMP180;3735;50.136;11.062;2023-03-12T07:45:23;97828.00;;;3.30
7389;BMP180;3735;50.136;11.062;2023-03-12T07:47:50;97820.00;;;3.40
7389;BMP180;3735;50.136;11.062;2023-03-12T07:50:17;97820.00;;;3.40
7389;BMP180;3735;50.136;11.062;2023-03-12T07:52:45;97816.00;;;3.50
7389;BMP180;3735;50.136;11.062;2023-03-12T07:55:11;97816.00;;;3.50
7389;BMP180;3735;50.136;11.062;2023-03-12T07:57:37;97828.00;;;3.60
7389;BMP180;3735;50.136;11.062;2023-03-12T08:00:05;97823.00;;;3.90
7389;BMP180;3735;50.136;11.062;2023-03-12T08:02:33;97791.00;;;3.80
7389;BMP180;3735;50.136;11.062;2023-03-12T08:04:59;97821.00;;;3.80
7389;BMP180;3735;50.136;11.062;2023-03-12T08:07:25;97815.00;;;3.90
7389;BMP180;3735;50.136;11.062;2023-03-12T08:09:57;97820.00;;;3.80
7389;BMP180;3735;50.136;11.062;2023-03-12T08:12:23;97810.00;;;3.90
7389;BMP180;3735;50.136;11.062;2023-03-12T08:14:49;97811.00;;;4.20
7389;BMP180;3735;50.136;11.062;2023-03-12T08:17:15;97811.00;;;4.40
7389;BMP180;3735;50.136;11.062;2023-03-12T08:19:40;97791.00;;;4.90
7389;BMP180;3735;50.136;11.062;2023-03-12T08:22:07;97788.00;;;5.30
7389;BMP180;3735;50.136;11.062;2023-03-12T08:24:33;97772.00;;;5.80
7389;BMP180;3735;50.136;11.062;2023-03-12T08:27:00;97772.00;;;6.50
7389;BMP180;3735;50.136;11.062;2023-03-12T08:29:26;97771.00;;;6.90
7389;BMP180;3735;50.136;11.062;2023-03-12T08:31:52;97776.00;;;6.70
7389;BMP180;3735;50.136;11.062;2023-03-12T08:34:17;97780.00;;;6.40
7389;BMP180;3735;50.136;11.062;2023-03-12T08:36:43;97783.00;;;6.60
7389;BMP180;3735;50.136;11.062;2023-03-12T08:39:09;97784.00;;;6.70
7389;BMP180;3735;50.136;11.062;2023-03-12T08:41:35;97783.00;;;7.10
7389;BMP180;3735;50.136;11.062;2023-03-12T08:44:00;97777.00;;;6.70
7389;BMP180;3735;50.136;11.062;2023-03-12T08:46:26;97775.00;;;6.30
7389;BMP180;3735;50.136;11.062;2023-03-12T08:48:52;97775.00;;;6.00
7389;BMP180;3735;50.136;11.062;2023-03-12T08:51:18;97769.00;;;6.00
7389;BMP180;3735;50.136;11.062;2023-03-12T08:53:44;97767.00;;;5.80
7389;BMP180;3735;50.136;11.062;2023-03-12T08:56:09;97771.00;;;5.60
7389;BMP180;3735;50.136;11.062;2023-03-12T08:58:35;97754.00;;;6.00
7389;BMP180;3735;50.136;11.062;2023-03-12T09:01:01;97755.00;;;6.40
7389;BMP180;3735;50.136;11.062;2023-03-12T09:03:32;97759.00;;;6.70
7389;BMP180;3735;50.136;11.062;2023-03-12T09:06:12;97762.00;;;6.90
7389;BMP180;3735;50.136;11.062;2023-03-12T09:08:42;97755.00;;;6.90
7389;BMP180;3735;50.136;11.062;2023-03-12T09:11:10;97759.00;;;6.70
7389;BMP180;3735;50.136;11.062;2023-03-12T09:13:38;97755.00;;;6.70
7389;BMP180;3735;50.136;11.062;2023-03-12T09:16:05;97750.00;;;7.00
7389;BMP180;3735;50.136;11.062;2023-03-12T09:18:31;97754.00;;;7.00
7389;BMP180;3735;50.136;11.062;2023-03-12T09:20:57;97747.00;;;7.10
7389;BMP180;3735;50.136;11.062;2023-03-12T09:23:25;97740.00;;;7.10
7389;BMP180;3735;50.136;11.062;2023-03-12T09:25:51;97729.00;;;7.50
7389;BMP180;3735;50.136;11.062;2023-03-12T09:28:18;97732.00;;;8.30
7389;BMP180;3735;50.136;11.062;2023-03-12T09:30:44;97733.00;;;8.90
7389;BMP180;3735;50.136;11.062;2023-03-12T09:33:10;97738.00;;;9.10
7389;BMP180;3735;50.136;11.062;2023-03-12T09:35:36;97736.00;;;9.20
7389;BMP180;3735;50.136;11.062;2023-03-12T09:38:02;97726.00;;;9.10
7389;BMP180;3735;50.136;11.062;2023-03-12T09:40:33;97736.00;;;8.90
7389;BMP180;3735;50.136;11.062;2023-03-12T09:43:20;97735.00;;;9.30
7389;BMP180;3735;50.136;11.062;2023-03-12T09:45:48;97721.00;;;9.10
7389;BMP180;3735;50.136;11.062;2023-03-12T09:48:28;97727.00;;;8.90
7389;BMP180;3735;50.136;11.062;2023-03-12T09:50:56;97721.00;;;9.10
7389;BMP180;3735;50.136;11.062;2023-03-12T09:53:43;97726.00;;;9.60
7389;BMP180;3735;50.136;11.062;2023-03-12T09:56:22;97720.00;;;9.90
7389;BMP180;3735;50.136;11.062;2023-03-12T09:58:48;97720.00;;;9.80
7389;BMP180;3735;50.136;11.062;2023-03-12T10:01:43;97731.00;;;9.70
7389;BMP180;3735;50.136;11.062;2023-03-12T10:13:20;97710.00;;;10.60
7389;BMP180;3735;50.136;11.062;2023-03-12T10:26:53;97694.00;;;11.50
7389;BMP180;3735;50.136;11.062;2023-03-12T10:29:29;97704.00;;;10.40
7389;BMP180;3735;50.136;11.062;2023-03-12T10:31:59;97698.00;;;9.70
7389;BMP180;3735;50.136;11.062;2023-03-12T10:34:55;97703.00;;;8.90
7389;BMP180;3735;50.136;11.062;2023-03-12T10:37:28;97709.00;;;8.00
7389;BMP180;3735;50.136;11.062;2023-03-12T10:39:55;97709.00;;;8.50
7389;BMP180;3735;50.136;11.062;2023-03-12T10:42:24;97714.00;;;7.90
7389;BMP180;3735;50.136;11.062;2023-03-12T10:45:02;97710.00;;;7.20
7389;BMP180;3735;50.136;11.062;2023-03-12T10:47:43;97697.00;;;7.30
7389;BMP180;3735;50.136;11.062;2023-03-12T10:52:46;97713.00;;;7.40
7389;BMP180;3735;50.136;11.062;2023-03-12T10:55:24;97716.00;;;7.20
7389;BMP180;3735;50.136;11.062;2023-03-12T10:57:51;97716.00;;;7.20
7389;BMP180;3735;50.136;11.062;2023-03-12T11:00:28;97718.00;;;7.00
7389;BMP180;3735;50.136;11.062;2023-03-12T11:02:57;97716.00;;;6.70
7389;BMP180;3735;50.136;11.062;2023-03-12T11:05:28;97716.00;;;6.70
7389;BMP180;3735;50.136;11.062;2023-03-12T11:07:55;97722.00;;;6.60
7389;BMP180;3735;50.136;11.062;2023-03-12T11:10:43;97717.00;;;6.80
7389;BMP180;3735;50.136;11.062;2023-03-12T11:13:30;97717.00;;;6.40
7389;BMP180;3735;50.136;11.062;2023-03-12T11:19:04;97711.00;;;7.00
7389;BMP180;3735;50.136;11.062;2023-03-12T11:21:35;97702.00;;;6.90
7389;BMP180;3735;50.136;11.062;2023-03-12T11:24:12;97707.00;;;6.90
7389;BMP180;3735;50.136;11.062;2023-03-12T11:29:47;97711.00;;;6.80
7389;BMP180;3735;50.136;11.062;2023-03-12T11:32:28;97709.00;;;7.00
7389;BMP180;3735;50.136;11.062;2023-03-12T11:34:56;97717.00;;;6.90
7389;BMP180;3735;50.136;11.062;2023-03-12T11:40:11;97710.00;;;7.10
7389;BMP180;3735;50.136;11.062;2023-03-12T11:43:24;97708.00;;;6.50
7389;BMP180;3735;50.136;11.062;2023-03-12T12:00:48;97702.00;;;6.40
7389;BMP180;3735;50.136;11.062;2023-03-12T12:09:12;97699.00;;;6.20
7389;BMP180;3735;50.136;11.062;2023-03-12T12:11:58;97699.00;;;6.10
7389;BMP180;3735;50.136;11.062;2023-03-12T12:17:51;97684.00;;;5.90
7389;BMP180;3735;50.136;11.062;2023-03-12T12:20:51;97692.00;;;5.90
7389;BMP180;3735;50.136;11.062;2023-03-12T12:23:51;97676.00;;;5.80
7389;BMP180;3735;50.136;11.062;2023-03-12T12:27:18;97670.00;;;5.90
7389;BMP180;3735;50.136;11.062;2023-03-12T12:35:36;97662.00;;;5.70
7389;BMP180;3735;50.136;11.062;2023-03-12T12:40:37;97657.00;;;5.40
7389;BMP180;3735;50.136;11.062;2023-03-12T12:43:29;97653.00;;;5.30
7389;BMP180;3735;50.136;11.062;2023-03-12T12:46:05;97652.00;;;5.50
7389;BMP180;3735;50.136;11.062;2023-03-12T12:48:46;97661.00;;;5.60
7389;BMP180;3735;50.136;11.062;2023-03-12T12:51:14;97652.00;;;5.60
7389;BMP180;3735;50.136;11.062;2023-03-12T13:02:40;97628.00;;;5.30
7389;BMP180;3735;50.136;11.062;2023-03-12T13:05:28;97631.00;;;5.20
7389;BMP180;3735;50.136;11.062;2023-03-12T13:08:05;97629.00;;;5.20
7389;BMP180;3735;50.136;11.062;2023-03-12T13:13:03;97628.00;;;4.90
7389;BMP180;3735;50.136;11.062;2023-03-12T13:15:38;97632.00;;;4.70
7389;BMP180;3735;50.136;11.062;2023-03-12T13:18:23;97621.00;;;4.80
7389;BMP180;3735;50.136;11.062;2023-03-12T13:23:54;97624.00;;;4.70
7389;BMP180;3735;50.136;11.062;2023-03-12T13:31:58;97629.00;;;4.80
7389;BMP180;3735;50.136;11.062;2023-03-12T13:36:58;97639.00;;;4.90
7389;BMP180;3735;50.136;11.062;2023-03-12T13:39:35;97644.00;;;5.00
7389;BMP180;3735;50.136;11.062;2023-03-12T13:44:50;97637.00;;;5.00
7389;BMP180;3735;50.136;11.062;2023-03-12T13:47:36;97640.00;;;5.00
7389;BMP180;3735;50.136;11.062;2023-03-12T13:50:13;97638.00;;;5.00
7389;BMP180;3735;50.136;11.062;2023-03-12T13:52:49;97622.00;;;5.20
7389;BMP180;3735;50.136;11.062;2023-03-12T13:55:30;97648.00;;;5.10
7389;BMP180;3735;50.136;11.062;2023-03-12T14:00:49;97639.00;;;5.10
7389;BMP180;3735;50.136;11.062;2023-03-12T14:03:33;97643.00;;;5.00
7389;BMP180;3735;50.136;11.062;2023-03-12T14:06:16;97641.00;;;5.00
7389;BMP180;3735;50.136;11.062;2023-03-12T14:09:11;97642.00;;;5.00
7389;BMP180;3735;50.136;11.062;2023-03-12T14:12:07;97648.00;;;5.00
7389;BMP180;3735;50.136;11.062;2023-03-12T14:17:33;97640.00;;;5.00
7389;BMP180;3735;50.136;11.062;2023-03-12T14:20:09;97642.00;;;5.00
7389;BMP180;3735;50.136;11.062;2023-03-12T14:22:40;97639.00;;;5.00
7389;BMP180;3735;50.136;11.062;2023-03-12T14:25:23;97649.00;;;5.00
7389;BMP180;3735;50.136;11.062;2023-03-12T14:27:51;97642.00;;;5.00
7389;BMP180;3735;50.136;11.062;2023-03-12T14:30:27;97651.00;;;5.00
7389;BMP180;3735;50.136;11.062;2023-03-12T14:32:58;97639.00;;;5.00
7389;BMP180;3735;50.136;11.062;2023-03-12T14:35:42;97634.00;;;5.10
7389;BMP180;3735;50.136;11.062;2023-03-12T14:38:36;97638.00;;;5.20
7389;BMP180;3735;50.136;11.062;2023-03-12T14:41:29;97641.00;;;5.20
7389;BMP180;3735;50.136;11.062;2023-03-12T14:44:05;97658.00;;;5.10
7389;BMP180;3735;50.136;11.062;2023-03-12T14:46:31;97639.00;;;5.20
7389;BMP180;3735;50.136;11.062;2023-03-12T14:48:57;97650.00;;;5.20
7389;BMP180;3735;50.136;11.062;2023-03-12T14:51:27;97641.00;;;5.20
7389;BMP180;3735;50.136;11.062;2023-03-12T14:53:55;97633.00;;;5.20
7389;BMP180;3735;50.136;11.062;2023-03-12T14:56:32;97643.00;;;5.20
7389;BMP180;3735;50.136;11.062;2023-03-12T14:59:19;97641.00;;;5.10
7389;BMP180;3735;50.136;11.062;2023-03-12T15:01:47;97633.00;;;5.20
7389;BMP180;3735;50.136;11.062;2023-03-12T15:04:17;97639.00;;;5.10
7389;BMP180;3735;50.136;11.062;2023-03-12T15:06:51;97635.00;;;5.10
7389;BMP180;3735;50.136;11.062;2023-03-12T15:09:25;97626.00;;;5.10
7389;BMP180;3735;50.136;11.062;2023-03-12T15:11:58;97619.00;;;5.10
7389;BMP180;3735;50.136;11.062;2023-03-12T15:14:28;97627.00;;;5.10
7389;BMP180;3735;50.136;11.062;2023-03-12T15:16:57;97609.00;;;5.10
7389;BMP180;3735;50.136;11.062;2023-03-12T15:19:31;97606.00;;;5.20
7389;BMP180;3735;50.136;11.062;2023-03-12T15:21:58;97602.00;;;5.30
7389;BMP180;3735;50.136;11.062;2023-03-12T15:24:36;97606.00;;;5.30
7389;BMP180;3735;50.136;11.062;2023-03-12T15:27:37;97601.00;;;5.40
7389;BMP180;3735;50.136;11.062;2023-03-12T15:30:26;97595.00;;;5.40
7389;BMP180;3735;50.136;11.062;2023-03-12T15:38:33;97588.00;;;5.50
7389;BMP180;3735;50.136;11.062;2023-03-12T15:41:07;97570.00;;;5.60
7389;BMP180;3735;50.136;11.062;2023-03-12T15:43:34;97581.00;;;5.60
7389;BMP180;3735;50.136;11.062;2023-03-12T15:46:04;97586.00;;;5.70
7389;BMP180;3735;50.136;11.062;2023-03-12T15:48:34;97586.00;;;5.70
7389;BMP180;3735;50.136;11.062;2023-03-12T15:51:00;97579.00;;;5.70
7389;BMP180;3735;50.136;11.062;2023-03-12T15:53:33;97591.00;;;5.70
7389;BMP180;3735;50.136;11.062;2023-03-12T15:56:20;97590.00;;;5.70
7389;BMP180;3735;50.136;11.062;2023-03-12T15:58:46;97591.00;;;5.70
7389;BMP180;3735;50.136;11.062;2023-03-12T16:01:17;97598.00;;;5.60
7389;BMP180;3735;50.136;11.062;2023-03-12T16:03:45;97612.00;;;5.60
7389;BMP180;3735;50.136;11.062;2023-03-12T16:06:15;97614.00;;;5.60
7389;BMP180;3735;50.136;11.062;2023-03-12T16:08:56;97621.00;;;5.60
7389;BMP180;3735;50.136;11.062;2023-03-12T16:11:29;97624.00;;;5.50
7389;BMP180;3735;50.136;11.062;2023-03-12T16:14:07;97621.00;;;5.50
7389;BMP180;3735;50.136;11.062;2023-03-12T16:16:35;97618.00;;;5.50
7389;BMP180;3735;50.136;11.062;2023-03-12T16:19:00;97614.00;;;5.50
7389;BMP180;3735;50.136;11.062;2023-03-12T16:21:26;97618.00;;;5.50
7389;BMP180;3735;50.136;11.062;2023-03-12T16:23:52;97608.00;;;5.50
7389;BMP180;3735;50.136;11.062;2023-03-12T16:26:17;97617.00;;;5.60
7389;BMP180;3735;50.136;11.062;2023-03-12T16:28:44;97607.00;;;5.50
7389;BMP180;3735;50.136;11.062;2023-03-12T16:31:13;97610.00;;;5.50
7389;BMP180;3735;50.136;11.062;2023-03-12T16:33:40;97595.00;;;5.50